| Date | Time | Temp. (oF) | Dew Point (oF) | Rel. Hum. (%) | Press. (in.) | Wind Dir. | Wind Speed (mph) | Hourly Rainfall (in.) |
|
|---|---|---|---|---|---|---|---|---|---|
| 1 | 01/07 | 00:00 | 32 | 32 | 100 | 29.50 | WNW | 4 | 0.00 |
| 2 | 01/06 | 23:00 | 31 | 31 | 100 | 29.48 | WNW | 7 | 0.00 |
| 3 | 01/06 | 22:00 | 31 | 31 | 100 | 29.49 | NW | 2 | 0.01 |
| 4 | 01/06 | 21:00 | 31 | 31 | 100 | 29.48 | N | 7 | 0.05 |
| 5 | 01/06 | 20:00 | 31 | 31 | 100 | 29.50 | NNW | 6 | 0.06 |
| 6 | 01/06 | 19:00 | 31 | 31 | 100 | 29.51 | WNW | 4 | 0.08 |
| 7 | 01/06 | 18:00 | 31 | 31 | 100 | 29.49 | N | 5 | 0.10 |
| 8 | 01/06 | 17:00 | 31 | 30 | 98 | 29.51 | N | 9 | 0.13 |
| 9 | 01/06 | 16:00 | 32 | 29 | 89 | 29.58 | N | 5 | 0.04 |
| 10 | 01/06 | 15:00 | 36 | 25 | 65 | 29.66 | NE | 7 | 0.00 |
| 11 | 01/06 | 14:00 | 36 | 26 | 68 | 29.72 | E | 7 | 0.00 |
| 12 | 01/06 | 13:00 | 35 | 27 | 73 | 29.80 | SSW | 2 | 0.00 |
| 13 | 01/06 | 12:00 | 33 | 25 | 75 | 29.80 | NE | 1 | 0.00 |
| 14 | 01/06 | 11:00 | 31 | 27 | 85 | 29.89 | ESE | 2 | 0.00 |
| 15 | 01/06 | 10:00 | 27 | 24 | 92 | 29.92 | E | 1 | 0.00 |
| 16 | 01/06 | 09:00 | 26 | 24 | 93 | 29.95 | SSE | 2 | 0.00 |
| 17 | 01/06 | 08:00 | 22 | 19 | 91 | 29.96 | ENE | 1 | 0.00 |
| 18 | 01/06 | 07:00 | 22 | 19 | 89 | 29.98 | N | 0 | 0.00 |
| 19 | 01/06 | 06:00 | 21 | 18 | 89 | 29.98 | N | 2 | 0.00 |
| 20 | 01/06 | 05:00 | 22 | 18 | 85 | 29.98 | NNE | 0 | 0.00 |
| 21 | 01/06 | 04:00 | 22 | 17 | 84 | 29.99 | NNE | 0 | 0.00 |
| 22 | 01/06 | 03:00 | 24 | 18 | 78 | 30.00 | N | 1 | 0.00 |
| 23 | 01/06 | 02:00 | 26 | 18 | 72 | 30.02 | N | 1 | 0.00 |
| 24 | 01/06 | 01:00 | 27 | 17 | 67 | 30.03 | N | 0 | 0.00 |